Time;durP1;ratioP1;P1;durP2;ratioP2;P2;SDS_P1;SDS_P2;PMS_P1;PMS_P2;Temp;Humidity;BMP_temperature;BMP_pressure;BME280_temperature;BME280_humidity;BME280_pressure;Samples;Min_cycle;Max_cycle;Signal;HPM_P1;HPM_P2
2022/06/22 00:00:34;;;;;;;9.60;5.38;;;23.40;99.90;;;;;;5070708;28;20024;-69
2022/06/22 00:03:00;;;;;;;9.63;4.68;;;23.40;99.90;;;;;;5072499;28;20035;-71
2022/06/22 00:05:37;;;;;;;16.40;5.78;;;23.40;99.90;;;;;;5070464;28;20020;-70
2022/06/22 00:08:06;;;;;;;12.13;6.00;;;23.20;99.90;;;;;;5069588;28;20028;-68
2022/06/22 00:10:41;;;;;;;13.70;6.00;;;23.30;99.90;;;;;;5070375;28;20025;-72
2022/06/22 00:13:17;;;;;;;9.30;5.97;;;23.40;99.90;;;;;;5069827;28;20025;-71
2022/06/22 00:15:56;;;;;;;12.30;5.90;;;23.40;99.90;;;;;;5070069;28;20029;-68
2022/06/22 00:18:28;;;;;;;11.25;5.55;;;23.50;99.90;;;;;;5069561;28;20037;-70
2022/06/22 00:20:58;;;;;;;10.35;5.57;;;23.50;99.90;;;;;;5069924;28;20021;-71
2022/06/22 00:23:40;;;;;;;8.63;4.95;;;23.50;99.90;;;;;;5071892;28;20522;-70
2022/06/22 00:26:07;;;;;;;;;;;23.50;99.90;;;;;;5054202;28;20562;-70
2022/06/22 00:29:09;;;;;;;11.88;5.32;;;23.40;99.90;;;;;;5073403;28;19904;-70
2022/06/22 00:31:38;;;;;;;9.70;4.90;;;23.40;99.90;;;;;;5073352;28;20021;-68
2022/06/22 00:34:12;;;;;;;10.05;4.47;;;23.40;99.90;;;;;;5073245;28;20027;-69
2022/06/22 00:36:48;;;;;;;12.13;4.93;;;23.30;99.90;;;;;;5072903;28;20116;-71
2022/06/22 00:39:16;;;;;;;8.95;4.47;;;23.20;99.90;;;;;;5073743;28;20104;-70
2022/06/22 00:41:49;;;;;;;9.40;4.65;;;23.30;99.40;;;;;;5054779;28;20425;-70
2022/06/22 00:44:16;;;;;;;8.30;3.38;;;23.20;98.70;;;;;;5073067;28;20556;-68
2022/06/22 00:46:55;;;;;;;9.30;3.45;;;23.00;94.30;;;;;;5073255;28;20032;-69
2022/06/22 00:49:22;;;;;;;7.70;3.45;;;22.90;91.60;;;;;;5072036;28;20032;-71
2022/06/22 00:51:48;;;;;;;8.75;3.03;;;22.80;93.30;;;;;;5053382;28;20041;-68
2022/06/22 00:54:19;;;;;;;8.95;3.33;;;22.80;91.70;;;;;;5052943;28;20471;-71
2022/06/22 00:56:55;;;;;;;8.25;3.30;;;22.80;90.80;;;;;;5052992;28;20086;-70
2022/06/22 00:59:42;;;;;;;3.90;1.90;;;22.60;88.50;;;;;;5053036;28;20031;-72
2022/06/22 01:02:45;;;;;;;7.18;2.50;;;22.60;82.20;;;;;;5051958;28;20019;-71
2022/06/22 01:05:29;;;;;;;14.60;3.13;;;22.60;83.90;;;;;;5051597;28;21043;-71
2022/06/22 01:08:04;;;;;;;7.22;2.40;;;22.40;84.50;;;;;;5051633;28;20071;-71
2022/06/22 01:10:32;;;;;;;6.07;2.42;;;22.40;83.10;;;;;;5052885;28;20017;-71
2022/06/22 01:13:07;;;;;;;3.97;2.13;;;22.30;83.00;;;;;;5051632;28;20494;-72
2022/06/22 01:15:45;;;;;;;6.30;2.22;;;22.20;79.50;;;;;;5052021;28;20080;-70
2022/06/22 01:18:31;;;;;;;5.80;2.33;;;22.20;78.60;;;;;;5051859;28;20725;-71
2022/06/22 01:21:15;;;;;;;4.57;1.92;;;22.10;78.90;;;;;;5047586;28;20108;-71
2022/06/22 01:24:14;;;;;;;2.70;1.60;;;21.90;77.50;;;;;;5045914;28;20025;-71
2022/06/22 01:27:04;;;;;;;4.93;1.92;;;21.90;77.40;;;;;;5047983;28;20108;-70
2022/06/22 01:29:31;;;;;;;3.83;1.88;;;21.90;76.20;;;;;;5051602;28;20539;-65
2022/06/22 01:32:15;;;;;;;4.90;1.60;;;21.80;75.50;;;;;;5051552;28;20466;-70
2022/06/22 01:34:45;;;;;;;4.35;1.80;;;21.80;75.20;;;;;;5050801;28;20025;-71
2022/06/22 01:37:32;;;;;;;16.20;2.22;;;21.80;75.20;;;;;;5051765;28;20712;-71
2022/06/22 01:40:16;;;;;;;2.80;1.95;;;21.70;74.60;;;;;;5051272;28;20492;-72
2022/06/22 01:43:03;;;;;;;2.85;1.50;;;21.70;73.90;;;;;;5049253;28;20115;-67
2022/06/22 01:45:47;;;;;;;5.03;1.60;;;21.60;73.20;;;;;;5048701;28;20108;-70
2022/06/22 01:48:26;;;;;;;5.47;1.38;;;21.50;72.60;;;;;;5051567;28;20044;-71
2022/06/22 01:51:05;;;;;;;2.55;1.65;;;21.60;72.90;;;;;;5062845;28;20086;-71
2022/06/22 01:53:39;;;;;;;4.30;1.63;;;21.50;73.20;;;;;;5067380;28;20436;-71
2022/06/22 01:56:39;;;;;;;3.00;1.42;;;21.30;72.80;;;;;;5070978;28;20110;-71
2022/06/22 01:59:23;;;;;;;4.18;1.35;;;21.30;73.60;;;;;;5069976;28;20490;-71
2022/06/22 02:02:04;;;;;;;7.07;1.17;;;21.20;72.90;;;;;;5071148;28;20478;-69
2022/06/22 02:04:30;;;;;;;4.03;1.38;;;21.30;73.00;;;;;;5071429;28;20027;-69
2022/06/22 02:10:23;;;;;;;4.43;1.73;;;21.20;72.30;;;;;;5070613;28;20029;-71
2022/06/22 02:13:08;;;;;;;3.60;1.10;;;21.10;72.10;;;;;;5067852;28;20036;-70
2022/06/22 02:15:40;;;;;;;4.50;1.38;;;21.20;72.10;;;;;;5070776;28;20479;-71
2022/06/22 02:18:13;;;;;;;8.38;1.60;;;21.20;71.60;;;;;;5070622;28;20051;-71
2022/06/22 02:20:39;;;;;;;5.63;1.83;;;21.30;71.60;;;;;;5069945;28;20028;-71
2022/06/22 02:23:17;;;;;;;3.25;1.40;;;21.20;71.20;;;;;;5070686;28;20032;-71
2022/06/22 02:26:06;;;;;;;4.20;1.20;;;21.30;71.50;;;;;;5070396;28;20585;-69
2022/06/22 02:28:32;;;;;;;2.97;1.27;;;21.30;70.80;;;;;;5070061;28;20043;-71
2022/06/22 02:30:59;;;;;;;1.73;1.15;;;21.30;71.40;;;;;;5070546;28;20369;-71
2022/06/22 02:33:26;;;;;;;6.05;1.58;;;21.30;71.80;;;;;;5070390;28;20035;-69
2022/06/22 02:35:53;;;;;;;2.83;1.15;;;21.40;71.80;;;;;;5070293;28;20060;-72
2022/06/22 02:38:19;;;;;;;2.63;1.23;;;21.40;70.80;;;;;;5069956;28;20044;-71
2022/06/22 02:46:24;;;;;;;2.80;1.35;;;21.40;70.10;;;;;;5069572;28;20024;-69
2022/06/22 02:48:58;;;;;;;7.28;2.33;;;21.30;70.40;;;;;;5066189;28;20024;-71
2022/06/22 02:51:41;;;;;;;4.28;1.38;;;21.30;70.00;;;;;;5066370;28;20060;-71
2022/06/22 02:54:14;;;;;;;;;;;21.30;70.20;;;;;;5067543;28;20111;-69
2022/06/22 02:56:44;;;;;;;4.40;1.20;;;21.40;70.40;;;;;;5069951;28;20423;-68
2022/06/22 02:59:11;;;;;;;2.60;1.48;;;21.40;70.30;;;;;;5066242;28;20025;-71
2022/06/22 03:01:38;;;;;;;2.28;1.48;;;21.50;72.00;;;;;;5069854;28;20029;-70
2022/06/22 03:04:09;;;;;;;5.70;1.40;;;21.50;72.30;;;;;;5069763;28;20028;-70
2022/06/22 03:06:42;;;;;;;4.07;1.70;;;21.50;70.80;;;;;;5070024;28;20398;-69
2022/06/22 03:09:07;;;;;;;;;;;21.60;72.30;;;;;;5070200;28;20509;-69
2022/06/22 03:11:38;;;;;;;3.10;1.27;;;21.60;71.20;;;;;;5069787;28;19904;-70
2022/06/22 03:14:22;;;;;;;6.65;1.58;;;21.60;71.50;;;;;;5069838;28;20036;-70
2022/06/22 03:16:57;;;;;;;2.45;1.35;;;21.70;71.50;;;;;;5070177;28;20089;-71
2022/06/22 03:19:36;;;;;;;7.50;1.75;;;21.70;72.00;;;;;;5066232;28;20052;-70
2022/06/22 03:22:02;;;;;;;5.10;1.20;;;21.80;69.90;;;;;;5066280;28;20470;-68
2022/06/22 03:24:54;;;;;;;3.22;1.38;;;21.70;70.30;;;;;;5065590;28;20588;-71
2022/06/22 03:27:24;;;;;;;2.60;1.10;;;21.70;70.00;;;;;;5069760;28;20521;-69
2022/06/22 03:29:54;;;;;;;3.33;1.40;;;21.70;70.10;;;;;;5069502;28;20023;-70
2022/06/22 03:32:32;;;;;;;3.22;1.60;;;21.70;70.40;;;;;;5071747;28;20098;-71
2022/06/22 03:35:06;;;;;;;4.40;1.40;;;21.70;68.40;;;;;;5070939;28;20462;-71
2022/06/22 03:37:47;;;;;;;3.40;1.30;;;21.80;69.00;;;;;;5070777;28;20032;-71
2022/06/22 03:40:19;;;;;;;3.83;1.42;;;21.70;69.80;;;;;;5071018;28;20035;-70
2022/06/22 03:42:50;;;;;;;3.22;1.48;;;21.70;68.00;;;;;;5070364;28;20051;-70
2022/06/22 03:45:22;;;;;;;3.50;1.35;;;21.70;68.70;;;;;;5079169;28;20029;-71
2022/06/22 03:48:07;;;;;;;6.50;1.87;;;21.70;68.70;;;;;;5071025;28;20546;-70
2022/06/22 03:50:52;;;;;;;3.42;1.45;;;21.80;69.70;;;;;;5068947;28;20041;-71
2022/06/22 03:53:30;;;;;;;4.72;1.55;;;21.80;69.00;;;;;;5067521;28;20406;-70
2022/06/22 03:56:01;;;;;;;2.03;1.30;;;21.80;70.70;;;;;;5069404;28;20090;-70
2022/06/22 03:58:28;;;;;;;3.53;1.52;;;21.90;71.30;;;;;;5073987;28;20079;-71
2022/06/22 04:00:54;;;;;;;5.38;1.65;;;21.90;71.90;;;;;;5074186;28;20430;-73
2022/06/22 04:03:21;;;;;;;7.07;1.95;;;22.00;71.00;;;;;;5073757;28;20024;-71
2022/06/22 04:05:55;;;;;;;2.75;1.08;;;22.00;69.10;;;;;;5073917;28;20150;-70
2022/06/22 04:08:35;;;;;;;7.68;1.70;;;22.00;69.10;;;;;;5074001;28;20028;-69
2022/06/22 04:11:26;;;;;;;10.35;2.38;;;22.00;68.30;;;;;;5071284;28;20032;-70
2022/06/22 04:14:06;;;;;;;4.05;2.00;;;22.00;68.50;;;;;;5078849;28;20116;-68
2022/06/22 04:16:37;;;;;;;13.18;2.50;;;22.10;69.90;;;;;;5080916;28;20058;-71
2022/06/22 04:19:31;;;;;;;8.82;2.17;;;22.00;68.60;;;;;;5072864;28;20028;-71
2022/06/22 04:22:08;;;;;;;8.18;2.17;;;21.80;67.70;;;;;;5010484;28;20096;-70
2022/06/22 04:24:49;;;;;;;10.02;2.85;;;21.70;67.40;;;;;;5012357;28;20121;-71
2022/06/22 04:27:43;;;;;;;8.80;2.95;;;21.70;69.30;;;;;;5011610;28;20065;-71
2022/06/22 04:30:13;;;;;;;4.13;1.63;;;21.70;70.20;;;;;;5009221;28;20448;-70
2022/06/22 04:32:50;;;;;;;3.13;1.70;;;21.70;69.80;;;;;;5011213;28;20033;-70
2022/06/22 04:35:43;;;;;;;4.03;1.77;;;21.60;69.60;;;;;;5008001;28;20073;-70
2022/06/22 04:38:32;;;;;;;;;;;21.70;70.10;;;;;;5011530;28;20053;-70
2022/06/22 04:41:19;;;;;;;2.85;1.70;;;21.70;68.60;;;;;;4984595;28;20008;-70
2022/06/22 04:43:46;;;;;;;3.17;1.90;;;21.70;69.10;;;;;;4987097;28;20067;-70
2022/06/22 04:46:16;;;;;;;3.10;1.60;;;21.80;68.50;;;;;;4983208;28;20163;-69
2022/06/22 04:48:49;;;;;;;5.70;2.00;;;21.80;69.20;;;;;;4972914;28;20034;-69
2022/06/22 04:51:20;;;;;;;;;;;21.70;69.00;;;;;;4989778;28;20137;-70
2022/06/22 04:53:56;;;;;;;2.58;1.60;;;21.70;69.30;;;;;;4990958;28;20619;-70
2022/06/22 04:56:33;;;;;;;6.32;1.67;;;21.70;68.80;;;;;;4971930;28;20065;-69
2022/06/22 04:59:00;;;;;;;2.95;1.38;;;21.70;68.10;;;;;;4992541;28;20140;-70
2022/06/22 05:01:32;;;;;;;8.40;1.67;;;21.70;69.30;;;;;;5010041;28;20026;-70
2022/06/22 05:04:20;;;;;;;1.63;1.17;;;21.90;70.70;;;;;;5010730;28;20034;-71
2022/06/22 05:06:58;;;;;;;2.05;1.35;;;21.90;68.50;;;;;;5010314;28;20052;-69
2022/06/22 05:09:46;;;;;;;3.75;1.42;;;22.00;69.00;;;;;;5009962;28;20030;-70
2022/06/22 05:12:18;;;;;;;3.55;1.42;;;22.10;69.10;;;;;;5010542;28;20495;-70
2022/06/22 05:14:45;;;;;;;3.90;1.50;;;21.90;68.90;;;;;;5010252;28;20077;-69
2022/06/22 05:17:20;;;;;;;2.72;1.33;;;22.00;67.90;;;;;;5017537;28;20041;-65
2022/06/22 05:19:51;;;;;;;3.13;1.60;;;21.90;68.60;;;;;;5071565;28;20068;-69
2022/06/22 05:22:18;;;;;;;6.50;2.25;;;22.00;67.90;;;;;;5072692;28;20027;-70
2022/06/22 05:24:50;;;;;;;11.95;2.35;;;22.00;69.40;;;;;;5072362;28;20383;-71
2022/06/22 05:27:23;;;;;;;7.65;1.65;;;22.00;69.30;;;;;;5065972;28;20066;-70
2022/06/22 05:29:56;;;;;;;1.92;1.30;;;21.60;68.50;;;;;;5066492;28;20067;-70
2022/06/22 05:32:37;;;;;;;4.93;1.70;;;21.70;68.70;;;;;;5071853;28;20024;-71
2022/06/22 05:35:09;;;;;;;19.45;1.95;;;21.60;69.20;;;;;;5071820;28;20101;-70
2022/06/22 05:37:39;;;;;;;7.82;2.10;;;21.70;71.40;;;;;;5063890;28;20029;-68
2022/06/22 05:40:06;;;;;;;1.95;1.48;;;21.80;72.40;;;;;;5071759;28;20064;-70
2022/06/22 05:42:33;;;;;;;1.40;1.20;;;21.80;73.70;;;;;;5071751;28;20016;-69
2022/06/22 05:44:59;;;;;;;4.22;1.52;;;21.80;73.10;;;;;;5069532;28;20062;-69
2022/06/22 05:47:28;;;;;;;5.28;1.42;;;22.00;70.00;;;;;;5069335;28;20081;-69
2022/06/22 05:50:06;;;;;;;3.50;1.27;;;22.00;69.40;;;;;;5071362;28;20454;-70
2022/06/22 05:52:49;;;;;;;2.13;1.50;;;22.10;69.10;;;;;;5071945;28;20458;-71
2022/06/22 05:55:23;;;;;;;3.65;1.38;;;22.50;70.40;;;;;;5072021;28;20032;-71
2022/06/22 05:58:24;;;;;;;3.65;1.70;;;22.50;67.40;;;;;;5071748;28;20049;-71
2022/06/22 06:00:53;;;;;;;3.75;1.60;;;22.60;67.30;;;;;;5071225;28;20027;-71
2022/06/22 06:03:39;;;;;;;3.03;1.42;;;22.50;66.80;;;;;;5072138;28;20153;-70
2022/06/22 06:06:11;;;;;;;5.95;1.80;;;22.60;67.30;;;;;;5053983;28;20017;-72
2022/06/22 06:08:48;;;;;;;4.18;1.60;;;22.70;67.50;;;;;;5071082;28;20043;-70
2022/06/22 06:11:19;;;;;;;1.30;1.20;;;22.80;67.60;;;;;;5062776;28;20056;-71
2022/06/22 06:13:50;;;;;;;10.02;1.92;;;22.90;66.60;;;;;;5078043;28;20022;-71
2022/06/22 06:16:25;;;;;;;3.72;1.58;;;22.80;67.10;;;;;;5071504;28;20036;-70
2022/06/22 06:18:55;;;;;;;15.40;2.22;;;23.00;67.40;;;;;;5068089;28;20051;-71
2022/06/22 06:21:24;;;;;;;4.05;1.40;;;23.20;67.50;;;;;;5057023;28;20558;-71
2022/06/22 06:24:00;;;;;;;5.85;1.60;;;22.60;65.30;;;;;;5057704;28;20028;-70
2022/06/22 06:29:46;;;;;;;4.32;1.33;;;22.80;66.50;;;;;;5068102;28;20036;-70
2022/06/22 06:32:39;;;;;;;4.20;1.60;;;22.70;66.40;;;;;;5061861;28;20111;-70
2022/06/22 06:35:16;;;;;;;4.30;2.25;;;22.60;66.70;;;;;;5063869;28;20021;-67
2022/06/22 06:37:54;;;;;;;5.40;1.80;;;22.70;66.80;;;;;;5067081;28;20044;-70
2022/06/22 06:40:34;;;;;;;6.30;1.83;;;22.70;68.40;;;;;;5071414;28;20100;-68
2022/06/22 06:43:25;;;;;;;8.82;1.92;;;23.10;67.90;;;;;;5064755;28;20035;-70
2022/06/22 06:45:53;;;;;;;3.73;1.47;;;23.60;67.20;;;;;;5070471;28;20073;-69
2022/06/22 06:48:30;;;;;;;6.95;1.50;;;24.00;66.30;;;;;;5070757;28;20497;-70
2022/06/22 06:51:00;;;;;;;6.15;1.52;;;24.30;65.90;;;;;;5070016;28;20708;-70
2022/06/22 06:53:53;;;;;;;2.97;1.80;;;23.80;64.00;;;;;;5071382;28;20044;-71
2022/06/22 06:56:37;;;;;;;3.45;1.48;;;23.60;64.00;;;;;;5068042;28;20136;-71
2022/06/22 06:59:09;;;;;;;3.72;1.48;;;23.80;64.60;;;;;;5061833;28;20125;-69
2022/06/22 07:01:38;;;;;;;3.30;1.42;;;23.40;64.60;;;;;;5057931;28;20024;-66
2022/06/22 07:04:10;;;;;;;3.97;1.77;;;23.50;64.70;;;;;;5063866;28;20119;-68
2022/06/22 07:06:37;;;;;;;4.07;1.48;;;23.40;65.70;;;;;;5070533;28;20433;-68
2022/06/22 07:09:24;;;;;;;2.20;1.70;;;23.50;67.10;;;;;;5069860;28;20021;-70
2022/06/22 07:11:54;;;;;;;1.88;1.10;;;23.60;68.10;;;;;;5069732;28;20082;-68
2022/06/22 07:14:37;;;;;;;2.15;1.30;;;23.30;65.10;;;;;;5078056;28;20033;-69
2022/06/22 07:17:09;;;;;;;8.07;1.85;;;23.40;65.30;;;;;;5059890;28;20091;-70
2022/06/22 07:19:48;;;;;;;3.45;1.60;;;23.40;66.90;;;;;;5058465;28;20491;-68
2022/06/22 07:22:31;;;;;;;6.00;2.00;;;23.40;65.40;;;;;;5070467;28;20120;-69
2022/06/22 07:25:16;;;;;;;4.10;1.77;;;23.40;64.90;;;;;;5066010;28;20424;-70
2022/06/22 07:27:51;;;;;;;12.88;2.17;;;23.40;65.00;;;;;;5070155;28;20458;-69
2022/06/22 07:30:40;;;;;;;7.20;2.03;;;23.40;65.80;;;;;;5070492;28;20024;-70
2022/06/22 07:33:13;;;;;;;3.58;1.38;;;23.50;65.40;;;;;;5073051;28;20036;-67
2022/06/22 07:35:56;;;;;;;3.90;1.50;;;23.50;63.50;;;;;;5056309;28;20039;-69
2022/06/22 07:38:26;;;;;;;1.30;1.20;;;23.60;64.20;;;;;;5065971;28;20047;-70
2022/06/22 07:43:37;;;;;;;6.90;1.67;;;23.70;64.30;;;;;;5067946;28;20025;-72
2022/06/22 07:46:04;;;;;;;5.60;1.70;;;23.70;64.10;;;;;;5067811;28;20024;-70
2022/06/22 07:48:37;;;;;;;8.13;1.92;;;23.40;65.10;;;;;;5063815;28;20150;-71
2022/06/22 07:51:06;;;;;;;5.50;1.92;;;23.30;65.90;;;;;;5072937;28;20728;-72
2022/06/22 07:53:55;;;;;;;5.45;2.10;;;23.10;66.80;;;;;;5071604;28;20037;-71
2022/06/22 07:56:27;;;;;;;3.47;1.60;;;23.10;66.40;;;;;;5071949;28;20116;-72
2022/06/22 07:58:57;;;;;;;3.17;1.90;;;23.30;69.00;;;;;;5071616;28;20497;-71
2022/06/22 08:01:30;;;;;;;7.78;1.73;;;23.00;68.10;;;;;;5060670;28;20033;-72
2022/06/22 08:04:02;;;;;;;4.43;1.83;;;23.10;69.00;;;;;;5071316;28;20044;-71
2022/06/22 08:06:36;;;;;;;1.67;1.30;;;23.20;70.20;;;;;;5073541;28;20505;-72
2022/06/22 08:09:15;;;;;;;8.45;2.03;;;23.30;63.90;;;;;;5070952;28;20621;-68
2022/06/22 08:11:49;;;;;;;5.40;1.77;;;23.30;65.30;;;;;;5074192;28;20466;-70
2022/06/22 08:14:45;;;;;;;7.38;2.10;;;23.50;65.70;;;;;;5070851;28;20055;-68
2022/06/22 08:17:20;;;;;;;4.60;1.60;;;23.40;66.00;;;;;;5073807;28;20047;-71
2022/06/22 08:19:46;;;;;;;7.05;2.00;;;23.20;65.30;;;;;;5070604;28;20036;-71
2022/06/22 08:22:13;;;;;;;8.27;2.53;;;23.40;65.70;;;;;;5072230;28;20035;-72
2022/06/22 08:24:45;;;;;;;5.85;2.03;;;23.50;65.30;;;;;;5073339;28;20028;-67
2022/06/22 08:27:18;;;;;;;3.80;1.95;;;23.40;65.40;;;;;;5071440;28;20025;-68
2022/06/22 08:29:48;;;;;;;3.13;1.60;;;23.60;65.60;;;;;;5073191;28;20027;-71
2022/06/22 08:32:36;;;;;;;4.70;2.00;;;23.70;65.20;;;;;;5073771;28;20374;-68
2022/06/22 08:35:26;;;;;;;3.42;2.08;;;24.40;65.20;;;;;;5072628;28;20557;-72
2022/06/22 08:38:11;;;;;;;5.88;2.60;;;24.50;63.90;;;;;;5073118;28;20056;-68
2022/06/22 08:40:51;;;;;;;4.32;2.38;;;23.90;63.80;;;;;;5072452;28;20020;-61
2022/06/22 08:43:58;;;;;;;9.98;2.30;;;24.20;63.60;;;;;;5071152;28;20027;-71
2022/06/22 08:46:45;;;;;;;2.75;1.73;;;24.50;64.00;;;;;;5060176;28;20039;-72
2022/06/22 08:49:53;;;;;;;4.18;2.13;;;25.00;64.50;;;;;;5072944;28;20035;-71
2022/06/22 08:52:57;;;;;;;5.68;2.50;;;25.60;64.70;;;;;;5030561;28;20497;-71
2022/06/22 08:55:32;;;;;;;9.07;2.78;;;26.20;64.60;;;;;;5030608;28;20029;-71
2022/06/22 08:58:37;;;;;;;3.13;1.88;;;26.30;61.60;;;;;;5029641;28;20095;-72
2022/06/22 09:01:15;;;;;;;7.47;2.20;;;26.10;62.60;;;;;;4971732;28;20058;-73
2022/06/22 09:03:49;;;;;;;6.03;2.20;;;26.80;63.00;;;;;;4971872;28;20038;-70
2022/06/22 09:06:39;;;;;;;5.85;2.08;;;26.90;62.40;;;;;;4971430;28;20117;-69
2022/06/22 09:09:10;;;;;;;4.40;2.13;;;26.70;61.50;;;;;;4971588;28;20139;-71
2022/06/22 09:11:51;;;;;;;7.28;1.70;;;26.80;61.70;;;;;;4971024;28;20061;-71
2022/06/22 09:14:32;;;;;;;3.75;1.98;;;26.60;59.70;;;;;;4972338;28;20030;-69
2022/06/22 09:17:45;;;;;;;3.92;1.90;;;26.70;59.50;;;;;;4971610;28;20532;-71
2022/06/22 09:20:33;;;;;;;10.73;3.00;;;26.80;57.40;;;;;;4908518;29;20136;-72
2022/06/22 09:23:11;;;;;;;20.50;4.70;;;26.90;58.80;;;;;;4845153;29;20132;-72
2022/06/22 09:25:49;;;;;;;4.03;2.17;;;27.00;60.40;;;;;;4845954;29;20436;-72
2022/06/22 09:28:14;;;;;;;13.60;2.80;;;26.80;61.80;;;;;;4859701;29;20045;-72
2022/06/22 09:30:46;;;;;;;5.18;2.40;;;26.60;61.40;;;;;;4892587;29;20041;-71
2022/06/22 09:33:18;;;;;;;9.45;2.35;;;26.10;59.80;;;;;;4934546;29;20067;-72
2022/06/22 09:36:02;;;;;;;6.95;2.95;;;26.20;58.60;;;;;;4943784;28;20243;-72
2022/06/22 09:38:55;;;;;;;4.53;2.65;;;26.30;59.10;;;;;;4940342;29;20047;-72
2022/06/22 09:41:42;;;;;;;8.98;3.13;;;26.40;58.30;;;;;;4937107;29;20481;-72
2022/06/22 09:44:35;;;;;;;7.28;2.15;;;26.60;57.70;;;;;;4945387;29;20513;-62
2022/06/22 09:47:19;;;;;;;7.38;1.90;;;26.70;59.10;;;;;;4941719;29;20039;-69
2022/06/22 09:50:09;;;;;;;4.47;1.52;;;26.90;58.10;;;;;;4949496;28;20046;-72
2022/06/22 09:52:58;;;;;;;5.00;1.92;;;26.70;57.60;;;;;;4945571;29;20734;-71
2022/06/22 09:58:57;;;;;;;5.78;1.52;;;26.30;56.70;;;;;;4990995;28;20050;-72
2022/06/22 10:01:49;;;;;;;3.58;1.85;;;26.00;58.30;;;;;;5046631;28;20063;-72
2022/06/22 10:04:21;;;;;;;8.23;3.00;;;26.60;58.50;;;;;;5006041;28;20898;-72
2022/06/22 10:06:47;;;;;;;;;;;26.50;57.00;;;;;;5008832;28;20052;-71
2022/06/22 10:09:43;;;;;;;2.53;1.08;;;26.40;55.50;;;;;;5021358;28;19909;-70
2022/06/22 10:12:29;;;;;;;5.72;1.80;;;26.90;56.90;;;;;;5012724;28;20105;-70
2022/06/22 10:15:17;;;;;;;3.03;1.98;;;27.20;55.50;;;;;;5012243;28;20547;-72
2022/06/22 10:18:21;;;;;;;2.60;1.10;;;27.30;55.20;;;;;;5010765;28;20093;-71
2022/06/22 10:21:03;;;;;;;2.92;1.40;;;27.30;53.00;;;;;;5009118;28;20064;-72
2022/06/22 10:23:43;;;;;;;2.42;1.30;;;27.40;50.30;;;;;;5010146;28;20029;-72
2022/06/22 10:26:24;;;;;;;4.03;2.08;;;27.50;49.50;;;;;;5020313;28;20048;-70
2022/06/22 10:28:50;;;;;;;2.10;1.90;;;27.50;49.90;;;;;;5008847;28;20060;-71
2022/06/22 10:31:27;;;;;;;1.80;1.70;;;27.80;49.40;;;;;;5008483;28;20480;-67
2022/06/22 10:34:21;;;;;;;4.13;1.90;;;28.10;49.10;;;;;;5009744;28;20065;-71
2022/06/22 10:37:17;;;;;;;3.47;1.35;;;28.10;50.10;;;;;;5008487;28;20476;-71
2022/06/22 10:45:08;;;;;;;3.63;1.50;;;28.00;51.00;;;;;;5014832;28;20037;-71
2022/06/22 10:46:21;;;;;;;3.05;2.05;;;28.20;51.80;;;;;;4989527;28;20042;-71
2022/06/22 10:49:26;;;;;;;3.28;2.17;;;28.10;51.80;;;;;;4984224;28;20075;-73
2022/06/22 10:52:19;;;;;;;12.13;2.50;;;28.10;52.20;;;;;;4929410;29;20051;-67
2022/06/22 10:55:18;;;;;;;3.88;2.28;;;28.20;53.20;;;;;;4930130;29;20538;-68
2022/06/22 10:58:05;;;;;;;5.95;2.38;;;27.70;53.90;;;;;;4930101;29;20043;-70
2022/06/22 11:00:43;;;;;;;7.18;2.60;;;27.90;53.90;;;;;;4929200;29;20245;-65
2022/06/22 11:03:44;;;;;;;6.28;2.50;;;27.80;53.10;;;;;;4928068;29;20067;-70
2022/06/22 11:06:46;;;;;;;5.03;3.00;;;28.00;55.30;;;;;;4871785;29;20049;-68
2022/06/22 11:09:14;;;;;;;;;;;27.90;54.30;;;;;;4875787;29;20136;-70
2022/06/22 11:11:49;;;;;;;4.75;2.20;;;27.90;51.60;;;;;;4875536;29;20329;-68
2022/06/22 11:14:43;;;;;;;8.63;2.90;;;28.00;52.50;;;;;;4875437;29;20033;-68
2022/06/22 11:17:29;;;;;;;5.07;2.55;;;28.50;55.40;;;;;;4893416;29;20052;-66
2022/06/22 11:19:57;;;;;;;4.25;2.38;;;28.70;55.60;;;;;;4909417;29;20047;-70
2022/06/22 11:22:32;;;;;;;4.53;2.67;;;28.60;53.80;;;;;;4911682;29;20187;-69
2022/06/22 11:25:13;;;;;;;6.43;2.88;;;28.70;54.90;;;;;;4900728;29;20028;-71
2022/06/22 11:31:05;;;;;;;7.72;2.70;;;27.90;54.00;;;;;;4958620;28;20047;-68
2022/06/22 11:33:50;;;;;;;6.00;2.97;;;28.10;54.60;;;;;;4953395;28;20043;-64
2022/06/22 11:36:34;;;;;;;4.80;2.67;;;28.20;55.60;;;;;;4969418;28;20074;-72
2022/06/22 11:39:14;;;;;;;8.82;2.50;;;28.50;56.40;;;;;;4969234;28;20039;-68
2022/06/22 11:41:58;;;;;;;5.80;3.40;;;28.20;55.60;;;;;;4982091;28;20105;-64
2022/06/22 11:47:48;;;;;;;9.15;3.50;;;28.60;56.10;;;;;;5051329;28;20033;-68
2022/06/22 11:50:36;;;;;;;5.47;2.65;;;28.70;55.60;;;;;;5056807;28;20044;-72
2022/06/22 11:53:36;;;;;;;10.35;3.38;;;28.80;57.40;;;;;;5068970;28;20031;-72
2022/06/22 11:56:30;;;;;;;5.90;3.42;;;29.20;58.30;;;;;;5069747;28;20063;-74
2022/06/22 11:59:06;;;;;;;9.27;4.20;;;29.50;58.30;;;;;;5044627;28;20124;-74
2022/06/22 12:01:48;;;;;;;8.07;3.63;;;29.20;56.20;;;;;;5050920;28;20036;-74
2022/06/22 12:04:25;;;;;;;5.82;3.10;;;29.20;57.30;;;;;;5050970;28;20075;-70
2022/06/22 12:06:56;;;;;;;5.50;3.17;;;28.90;56.50;;;;;;5049433;28;20039;-74
2022/06/22 12:09:48;;;;;;;7.90;3.57;;;29.10;56.70;;;;;;5050353;28;20029;-72
2022/06/22 12:12:19;;;;;;;11.07;3.70;;;29.00;56.80;;;;;;5044620;28;20518;-72
2022/06/22 12:15:09;;;;;;;;;;;29.20;57.90;;;;;;5051817;28;20028;-72
2022/06/22 12:17:59;;;;;;;8.45;3.65;;;29.30;60.40;;;;;;5052224;28;20263;-72
2022/06/22 12:20:25;;;;;;;9.27;4.18;;;29.60;61.00;;;;;;5054790;28;20451;-72
2022/06/22 12:23:00;;;;;;;9.25;4.47;;;29.70;59.50;;;;;;5066635;28;20034;-73
2022/06/22 12:25:52;;;;;;;9.73;4.07;;;29.60;60.00;;;;;;5074589;28;20082;-71
2022/06/22 12:28:30;;;;;;;12.02;4.70;;;29.50;60.20;;;;;;5076517;28;20028;-74
2022/06/22 12:31:09;;;;;;;6.88;3.45;;;29.50;61.70;;;;;;5073378;28;20024;-75
2022/06/22 12:33:42;;;;;;;10.10;4.00;;;29.40;59.30;;;;;;5071003;28;20033;-74
2022/06/22 12:36:32;;;;;;;6.45;4.00;;;29.30;59.40;;;;;;5074133;28;20039;-75
2022/06/22 12:39:30;;;;;;;6.95;3.45;;;29.30;60.20;;;;;;5074008;28;20030;-68
2022/06/22 12:42:16;;;;;;;9.60;4.18;;;29.40;58.20;;;;;;5052855;28;20144;-64
2022/06/22 12:45:12;;;;;;;6.15;3.25;;;29.20;57.60;;;;;;5030826;28;20072;-74
2022/06/22 12:47:52;;;;;;;12.10;3.97;;;29.40;59.70;;;;;;5032831;28;20040;-76
2022/06/22 12:50:33;;;;;;;10.02;4.18;;;29.40;60.00;;;;;;5036801;28;20504;-72
2022/06/22 12:53:11;;;;;;;6.15;3.90;;;29.40;61.30;;;;;;5030591;28;20083;-73
2022/06/22 12:55:42;;;;;;;4.53;3.38;;;29.60;62.00;;;;;;5031156;28;20527;-74
2022/06/22 12:58:14;;;;;;;;;;;29.60;60.20;;;;;;5031730;28;20121;-74
2022/06/22 13:00:42;;;;;;;6.95;4.00;;;29.40;59.80;;;;;;5031733;28;20371;-75
2022/06/22 13:03:16;;;;;;;9.75;3.65;;;29.60;62.80;;;;;;5029994;28;20026;-74
2022/06/22 13:05:43;;;;;;;8.57;4.05;;;29.50;60.20;;;;;;5023369;28;20120;-64
2022/06/22 13:08:16;;;;;;;9.35;4.25;;;29.40;60.10;;;;;;5030848;28;20052;-73
2022/06/22 13:10:45;;;;;;;8.98;3.50;;;29.50;61.10;;;;;;5030483;28;20022;-73
2022/06/22 13:13:27;;;;;;;8.82;3.83;;;29.40;60.40;;;;;;5030238;28;20044;-75
2022/06/22 13:16:12;;;;;;;6.45;3.40;;;29.40;59.50;;;;;;5030853;28;20037;-74
2022/06/22 13:18:46;;;;;;;8.60;4.25;;;29.70;62.30;;;;;;5030854;28;20069;-74
2022/06/22 13:21:25;;;;;;;8.57;3.25;;;29.50;58.90;;;;;;5033549;28;20118;-76
2022/06/22 13:23:58;;;;;;;5.10;3.20;;;29.50;59.80;;;;;;5053721;28;20052;-75
2022/06/22 13:26:23;;;;;;;6.47;3.53;;;29.50;60.40;;;;;;5073134;28;20024;-74
2022/06/22 13:29:13;;;;;;;8.65;4.85;;;29.60;62.00;;;;;;5072447;28;20016;-66
2022/06/22 13:31:42;;;;;;;7.45;3.33;;;29.80;62.20;;;;;;5072809;28;20028;-74
2022/06/22 13:34:19;;;;;;;8.30;4.03;;;29.80;61.20;;;;;;5072731;28;20020;-76
2022/06/22 13:37:03;;;;;;;9.55;4.07;;;29.80;62.30;;;;;;5071420;28;20107;-75
2022/06/22 13:39:55;;;;;;;8.07;3.70;;;29.60;61.70;;;;;;5072098;28;20033;-73
2022/06/22 13:42:29;;;;;;;6.95;3.00;;;29.40;60.50;;;;;;5063454;28;20119;-69
2022/06/22 13:45:14;;;;;;;9.60;4.07;;;29.40;61.20;;;;;;5079349;28;20035;-72
2022/06/22 13:47:58;;;;;;;8.82;3.53;;;29.30;61.30;;;;;;5070806;28;20125;-75
2022/06/22 13:51:20;;;;;;;9.63;3.70;;;29.10;62.90;;;;;;5072188;28;20083;-74
2022/06/22 13:54:14;;;;;;;8.23;3.33;;;29.20;62.50;;;;;;5001612;28;20045;-74
2022/06/22 13:57:10;;;;;;;7.93;3.85;;;29.40;63.00;;;;;;5006896;28;20045;-74
2022/06/22 13:59:51;;;;;;;8.23;4.03;;;29.40;62.10;;;;;;5010798;28;20411;-71
2022/06/22 14:02:35;;;;;;;5.80;3.42;;;29.50;62.50;;;;;;5009409;28;20439;-72
2022/06/22 14:05:44;;;;;;;7.82;3.92;;;29.60;62.60;;;;;;4997929;28;20118;-70
2022/06/22 14:08:38;;;;;;;7.07;3.53;;;29.60;62.10;;;;;;4970311;28;20404;-74
2022/06/22 14:11:07;;;;;;;13.20;4.22;;;29.50;62.40;;;;;;4971510;28;20046;-74
2022/06/22 14:13:45;;;;;;;8.45;3.13;;;29.60;63.10;;;;;;4971321;28;20464;-73
2022/06/22 14:16:33;;;;;;;7.18;3.40;;;29.70;62.70;;;;;;4962754;28;20093;-74